Raven, Kentucky
Current Conditions -  °F | °C
As of 1:15 AM on Wednesday 22 Oct 2014 (Local Time) from KPBX Reporting Station
Overcast Overcast  
Wind Chill:   Ceiling: 1000
Heat Index:   Visibility: 10mi
Dew Point:   Wind: 6mph
Humidity: 92%   Direction: 360°N
Pressure: 30.11"   Gusts: NA
Location:  37.41°N, 82.8°W
Report Text: KPBX 220515Z AUTO 36005KT 10SM OVC010 07/06 A3011 RMK AO2 T00670055
Loading
Personal Weather Stations






























Interactive Weather Map
Tropical Storm Tracking
New forecast layout! Learn more

10-Day Weather Forecast

Advertisements
Track Severe Weather on mobile